sensor_id;sensor_type;location;lat;lon;timestamp;temperature;humidity
20520;DHT22;53432;51.952;14.740;2022-08-19T00:00:35;24.50;99.90
20520;DHT22;53432;51.952;14.740;2022-08-19T00:03:02;24.50;99.90
20520;DHT22;53432;51.952;14.740;2022-08-19T00:05:30;24.50;99.90
20520;DHT22;53432;51.952;14.740;2022-08-19T00:07:58;24.40;99.90
20520;DHT22;53432;51.952;14.740;2022-08-19T00:10:25;24.50;99.90
20520;DHT22;53432;51.952;14.740;2022-08-19T00:12:53;24.60;99.90
20520;DHT22;53432;51.952;14.740;2022-08-19T00:15:22;24.60;99.90
20520;DHT22;53432;51.952;14.740;2022-08-19T00:17:49;24.50;99.90
20520;DHT22;53432;51.952;14.740;2022-08-19T00:20:19;24.30;99.90
20520;DHT22;53432;51.952;14.740;2022-08-19T00:22:47;24.20;99.90
20520;DHT22;53432;51.952;14.740;2022-08-19T00:25:15;24.20;99.90
20520;DHT22;53432;51.952;14.740;2022-08-19T00:27:43;24.20;99.90
20520;DHT22;53432;51.952;14.740;2022-08-19T00:30:11;24.20;99.90
20520;DHT22;53432;51.952;14.740;2022-08-19T00:32:40;24.20;99.90
20520;DHT22;53432;51.952;14.740;2022-08-19T00:35:08;24.20;99.90
20520;DHT22;53432;51.952;14.740;2022-08-19T00:37:36;24.30;99.90
20520;DHT22;53432;51.952;14.740;2022-08-19T00:40:06;24.30;99.90
20520;DHT22;53432;51.952;14.740;2022-08-19T00:42:34;24.20;99.90
20520;DHT22;53432;51.952;14.740;2022-08-19T00:45:02;24.20;99.90
20520;DHT22;53432;51.952;14.740;2022-08-19T00:47:29;24.30;99.90
20520;DHT22;53432;51.952;14.740;2022-08-19T00:49:58;24.30;99.90
20520;DHT22;53432;51.952;14.740;2022-08-19T00:52:28;24.20;99.90
20520;DHT22;53432;51.952;14.740;2022-08-19T00:54:57;24.30;99.90
20520;DHT22;53432;51.952;14.740;2022-08-19T00:57:28;24.30;99.90
20520;DHT22;53432;51.952;14.740;2022-08-19T00:59:58;24.30;99.90
20520;DHT22;53432;51.952;14.740;2022-08-19T01:02:27;24.30;99.90
20520;DHT22;53432;51.952;14.740;2022-08-19T01:04:54;24.30;99.90
20520;DHT22;53432;51.952;14.740;2022-08-19T01:07:23;24.40;99.90
20520;DHT22;53432;51.952;14.740;2022-08-19T01:09:51;24.30;99.90
20520;DHT22;53432;51.952;14.740;2022-08-19T01:12:19;24.40;99.90
20520;DHT22;53432;51.952;14.740;2022-08-19T01:14:47;24.40;99.90
20520;DHT22;53432;51.952;14.740;2022-08-19T01:17:15;24.30;99.90
20520;DHT22;53432;51.952;14.740;2022-08-19T01:19:44;24.40;99.90
20520;DHT22;53432;51.952;14.740;2022-08-19T01:22:26;24.40;99.90
20520;DHT22;53432;51.952;14.740;2022-08-19T01:24:54;24.40;99.90
20520;DHT22;53432;51.952;14.740;2022-08-19T01:27:22;24.40;99.90
20520;DHT22;53432;51.952;14.740;2022-08-19T01:29:49;24.40;99.90
20520;DHT22;53432;51.952;14.740;2022-08-19T01:32:17;24.40;99.90
20520;DHT22;53432;51.952;14.740;2022-08-19T01:34:45;24.40;99.90
20520;DHT22;53432;51.952;14.740;2022-08-19T01:37:14;24.40;99.90
20520;DHT22;53432;51.952;14.740;2022-08-19T01:39:42;24.40;99.90
20520;DHT22;53432;51.952;14.740;2022-08-19T01:42:10;24.50;99.90
20520;DHT22;53432;51.952;14.740;2022-08-19T01:44:38;24.40;99.90
20520;DHT22;53432;51.952;14.740;2022-08-19T01:47:07;24.40;99.90
20520;DHT22;53432;51.952;14.740;2022-08-19T01:49:35;24.40;99.90
20520;DHT22;53432;51.952;14.740;2022-08-19T01:52:04;24.40;99.90
20520;DHT22;53432;51.952;14.740;2022-08-19T01:54:31;24.40;99.90
20520;DHT22;53432;51.952;14.740;2022-08-19T01:57:03;24.50;99.90
20520;DHT22;53432;51.952;14.740;2022-08-19T01:59:32;24.40;99.90
20520;DHT22;53432;51.952;14.740;2022-08-19T02:01:59;24.40;99.90
20520;DHT22;53432;51.952;14.740;2022-08-19T02:04:27;24.50;99.90
20520;DHT22;53432;51.952;14.740;2022-08-19T02:06:54;24.40;99.90
20520;DHT22;53432;51.952;14.740;2022-08-19T02:09:21;24.40;99.90
20520;DHT22;53432;51.952;14.740;2022-08-19T02:11:49;24.40;99.90
20520;DHT22;53432;51.952;14.740;2022-08-19T02:14:17;24.40;99.90
20520;DHT22;53432;51.952;14.740;2022-08-19T02:16:45;24.40;99.90
20520;DHT22;53432;51.952;14.740;2022-08-19T02:19:12;24.40;99.90
20520;DHT22;53432;51.952;14.740;2022-08-19T02:21:40;24.50;99.90
20520;DHT22;53432;51.952;14.740;2022-08-19T02:24:07;24.40;99.90
20520;DHT22;53432;51.952;14.740;2022-08-19T02:26:34;24.40;99.90
20520;DHT22;53432;51.952;14.740;2022-08-19T02:29:03;24.40;99.90
20520;DHT22;53432;51.952;14.740;2022-08-19T02:31:32;24.40;99.90
20520;DHT22;53432;51.952;14.740;2022-08-19T02:33:59;24.40;99.90
20520;DHT22;53432;51.952;14.740;2022-08-19T02:36:27;24.40;99.90
20520;DHT22;53432;51.952;14.740;2022-08-19T02:38:55;24.40;99.90
20520;DHT22;53432;51.952;14.740;2022-08-19T02:41:23;24.40;99.90
20520;DHT22;53432;51.952;14.740;2022-08-19T02:43:51;24.40;99.90
20520;DHT22;53432;51.952;14.740;2022-08-19T02:46:21;24.40;99.90
20520;DHT22;53432;51.952;14.740;2022-08-19T02:48:52;24.20;99.90
20520;DHT22;53432;51.952;14.740;2022-08-19T02:51:22;24.30;99.90
20520;DHT22;53432;51.952;14.740;2022-08-19T02:53:50;24.30;99.90
20520;DHT22;53432;51.952;14.740;2022-08-19T02:56:17;24.30;99.90
20520;DHT22;53432;51.952;14.740;2022-08-19T02:58:45;24.30;99.90
20520;DHT22;53432;51.952;14.740;2022-08-19T03:01:21;24.20;99.90
20520;DHT22;53432;51.952;14.740;2022-08-19T03:03:50;24.20;99.90
20520;DHT22;53432;51.952;14.740;2022-08-19T03:06:18;24.20;99.90
20520;DHT22;53432;51.952;14.740;2022-08-19T03:08:47;24.20;99.90
20520;DHT22;53432;51.952;14.740;2022-08-19T03:11:17;24.20;99.90
20520;DHT22;53432;51.952;14.740;2022-08-19T03:13:44;24.20;99.90
20520;DHT22;53432;51.952;14.740;2022-08-19T03:16:12;24.10;99.90
20520;DHT22;53432;51.952;14.740;2022-08-19T03:18:40;24.10;99.90
20520;DHT22;53432;51.952;14.740;2022-08-19T03:21:09;24.10;99.90
20520;DHT22;53432;51.952;14.740;2022-08-19T03:23:36;24.10;99.90
20520;DHT22;53432;51.952;14.740;2022-08-19T03:26:05;24.10;99.90
20520;DHT22;53432;51.952;14.740;2022-08-19T03:28:33;24.10;99.90
20520;DHT22;53432;51.952;14.740;2022-08-19T03:31:02;24.00;99.90
20520;DHT22;53432;51.952;14.740;2022-08-19T03:33:31;24.00;99.90
20520;DHT22;53432;51.952;14.740;2022-08-19T03:36:04;23.90;99.90
20520;DHT22;53432;51.952;14.740;2022-08-19T03:38:33;24.00;99.90
20520;DHT22;53432;51.952;14.740;2022-08-19T03:41:03;24.00;99.90
20520;DHT22;53432;51.952;14.740;2022-08-19T03:43:33;24.00;99.90
20520;DHT22;53432;51.952;14.740;2022-08-19T03:46:02;24.00;99.90
20520;DHT22;53432;51.952;14.740;2022-08-19T03:48:31;24.00;99.90
20520;DHT22;53432;51.952;14.740;2022-08-19T03:50:59;24.00;99.90
20520;DHT22;53432;51.952;14.740;2022-08-19T03:53:27;23.90;99.90
20520;DHT22;53432;51.952;14.740;2022-08-19T03:55:58;24.00;99.90
20520;DHT22;53432;51.952;14.740;2022-08-19T03:58:26;24.00;99.90
20520;DHT22;53432;51.952;14.740;2022-08-19T04:00:54;24.00;99.90
20520;DHT22;53432;51.952;14.740;2022-08-19T04:03:22;24.00;99.90
20520;DHT22;53432;51.952;14.740;2022-08-19T04:05:50;24.00;99.90
20520;DHT22;53432;51.952;14.740;2022-08-19T04:08:17;24.00;99.90
20520;DHT22;53432;51.952;14.740;2022-08-19T04:10:46;24.10;99.90
20520;DHT22;53432;51.952;14.740;2022-08-19T04:13:16;24.10;99.90
20520;DHT22;53432;51.952;14.740;2022-08-19T04:15:45;24.10;99.90
20520;DHT22;53432;51.952;14.740;2022-08-19T04:18:13;24.10;99.90
20520;DHT22;53432;51.952;14.740;2022-08-19T04:20:42;24.10;99.90
20520;DHT22;53432;51.952;14.740;2022-08-19T04:23:10;24.10;99.90
20520;DHT22;53432;51.952;14.740;2022-08-19T04:25:40;24.20;99.90
20520;DHT22;53432;51.952;14.740;2022-08-19T04:28:09;24.20;99.90
20520;DHT22;53432;51.952;14.740;2022-08-19T04:30:42;24.20;99.90
20520;DHT22;53432;51.952;14.740;2022-08-19T04:33:11;24.20;99.90
20520;DHT22;53432;51.952;14.740;2022-08-19T04:35:40;24.10;99.90
20520;DHT22;53432;51.952;14.740;2022-08-19T04:38:08;23.90;99.90
20520;DHT22;53432;51.952;14.740;2022-08-19T04:40:40;23.90;99.90
20520;DHT22;53432;51.952;14.740;2022-08-19T04:43:26;23.80;99.90
20520;DHT22;53432;51.952;14.740;2022-08-19T04:45:55;23.60;99.90
20520;DHT22;53432;51.952;14.740;2022-08-19T04:48:23;23.60;99.90
20520;DHT22;53432;51.952;14.740;2022-08-19T04:50:53;23.70;99.90
20520;DHT22;53432;51.952;14.740;2022-08-19T04:53:24;23.70;99.90
20520;DHT22;53432;51.952;14.740;2022-08-19T04:55:54;23.70;99.90
20520;DHT22;53432;51.952;14.740;2022-08-19T04:58:22;23.80;99.90
20520;DHT22;53432;51.952;14.740;2022-08-19T05:00:50;23.70;99.90
20520;DHT22;53432;51.952;14.740;2022-08-19T05:03:19;23.70;99.90
20520;DHT22;53432;51.952;14.740;2022-08-19T05:05:48;23.80;99.90
20520;DHT22;53432;51.952;14.740;2022-08-19T05:08:18;23.80;99.90
20520;DHT22;53432;51.952;14.740;2022-08-19T05:10:48;23.80;99.90
20520;DHT22;53432;51.952;14.740;2022-08-19T05:13:18;23.70;99.90
20520;DHT22;53432;51.952;14.740;2022-08-19T05:15:54;23.80;99.90
20520;DHT22;53432;51.952;14.740;2022-08-19T05:18:23;23.90;99.90
20520;DHT22;53432;51.952;14.740;2022-08-19T05:21:09;23.90;99.90
20520;DHT22;53432;51.952;14.740;2022-08-19T05:24:09;24.00;99.90
20520;DHT22;53432;51.952;14.740;2022-08-19T05:26:36;24.00;99.90
20520;DHT22;53432;51.952;14.740;2022-08-19T05:29:04;24.00;99.90
20520;DHT22;53432;51.952;14.740;2022-08-19T05:31:33;24.00;99.90
20520;DHT22;53432;51.952;14.740;2022-08-19T05:34:06;24.10;99.90
20520;DHT22;53432;51.952;14.740;2022-08-19T05:36:35;24.10;99.90
20520;DHT22;53432;51.952;14.740;2022-08-19T05:39:04;24.10;99.90
20520;DHT22;53432;51.952;14.740;2022-08-19T05:41:32;24.10;99.90
20520;DHT22;53432;51.952;14.740;2022-08-19T05:44:03;24.10;99.90
20520;DHT22;53432;51.952;14.740;2022-08-19T05:46:32;24.20;99.90
20520;DHT22;53432;51.952;14.740;2022-08-19T05:49:00;24.20;99.90
20520;DHT22;53432;51.952;14.740;2022-08-19T05:51:29;24.20;99.90
20520;DHT22;53432;51.952;14.740;2022-08-19T05:53:57;24.30;99.90
20520;DHT22;53432;51.952;14.740;2022-08-19T05:56:24;24.40;99.90
20520;DHT22;53432;51.952;14.740;2022-08-19T05:58:52;24.40;99.90
20520;DHT22;53432;51.952;14.740;2022-08-19T06:01:20;24.40;99.90
20520;DHT22;53432;51.952;14.740;2022-08-19T06:03:47;24.40;99.90
20520;DHT22;53432;51.952;14.740;2022-08-19T06:06:16;24.40;99.90
20520;DHT22;53432;51.952;14.740;2022-08-19T06:08:45;24.40;99.90
20520;DHT22;53432;51.952;14.740;2022-08-19T06:11:19;24.50;99.90
20520;DHT22;53432;51.952;14.740;2022-08-19T06:13:49;24.50;99.90
20520;DHT22;53432;51.952;14.740;2022-08-19T06:16:19;24.50;99.90
20520;DHT22;53432;51.952;14.740;2022-08-19T06:18:49;24.60;99.90
20520;DHT22;53432;51.952;14.740;2022-08-19T06:21:21;24.70;99.90
20520;DHT22;53432;51.952;14.740;2022-08-19T06:23:51;24.80;99.90
20520;DHT22;53432;51.952;14.740;2022-08-19T06:26:19;24.80;99.90
20520;DHT22;53432;51.952;14.740;2022-08-19T06:28:48;24.90;99.90
20520;DHT22;53432;51.952;14.740;2022-08-19T06:31:17;25.00;99.90
20520;DHT22;53432;51.952;14.740;2022-08-19T06:33:47;24.90;99.90
20520;DHT22;53432;51.952;14.740;2022-08-19T06:36:21;24.90;99.90
20520;DHT22;53432;51.952;14.740;2022-08-19T06:38:54;25.00;99.90
20520;DHT22;53432;51.952;14.740;2022-08-19T06:41:22;25.00;99.90
20520;DHT22;53432;51.952;14.740;2022-08-19T06:43:50;25.20;99.90
20520;DHT22;53432;51.952;14.740;2022-08-19T06:46:18;25.20;99.90
20520;DHT22;53432;51.952;14.740;2022-08-19T06:48:46;25.20;99.90
20520;DHT22;53432;51.952;14.740;2022-08-19T06:51:15;25.20;99.90
20520;DHT22;53432;51.952;14.740;2022-08-19T06:53:44;25.10;99.90
20520;DHT22;53432;51.952;14.740;2022-08-19T06:56:15;25.10;99.90
20520;DHT22;53432;51.952;14.740;2022-08-19T06:58:43;24.90;99.90
20520;DHT22;53432;51.952;14.740;2022-08-19T07:01:10;24.90;99.90
20520;DHT22;53432;51.952;14.740;2022-08-19T07:03:38;24.80;99.90
20520;DHT22;53432;51.952;14.740;2022-08-19T07:06:07;24.80;99.90
20520;DHT22;53432;51.952;14.740;2022-08-19T07:08:36;24.70;99.90
20520;DHT22;53432;51.952;14.740;2022-08-19T07:11:08;24.70;99.90
20520;DHT22;53432;51.952;14.740;2022-08-19T07:13:37;24.70;99.90
20520;DHT22;53432;51.952;14.740;2022-08-19T07:16:06;24.70;99.90
20520;DHT22;53432;51.952;14.740;2022-08-19T07:18:34;24.80;99.90
20520;DHT22;53432;51.952;14.740;2022-08-19T07:21:04;24.80;99.90
20520;DHT22;53432;51.952;14.740;2022-08-19T07:23:32;24.80;99.90
20520;DHT22;53432;51.952;14.740;2022-08-19T07:26:05;24.70;99.90
20520;DHT22;53432;51.952;14.740;2022-08-19T07:28:33;24.70;99.90
20520;DHT22;53432;51.952;14.740;2022-08-19T07:31:01;24.70;99.90
20520;DHT22;53432;51.952;14.740;2022-08-19T07:33:29;24.70;99.90
20520;DHT22;53432;51.952;14.740;2022-08-19T07:35:58;24.80;99.90
20520;DHT22;53432;51.952;14.740;2022-08-19T07:38:25;24.70;99.90
20520;DHT22;53432;51.952;14.740;2022-08-19T07:40:53;24.60;99.90
20520;DHT22;53432;51.952;14.740;2022-08-19T07:43:20;24.60;99.90
20520;DHT22;53432;51.952;14.740;2022-08-19T07:45:51;24.50;99.90
20520;DHT22;53432;51.952;14.740;2022-08-19T07:48:20;24.50;99.90
20520;DHT22;53432;51.952;14.740;2022-08-19T07:50:51;24.40;99.90
20520;DHT22;53432;51.952;14.740;2022-08-19T07:53:20;24.40;99.90
20520;DHT22;53432;51.952;14.740;2022-08-19T07:55:48;24.40;99.90
20520;DHT22;53432;51.952;14.740;2022-08-19T07:58:17;24.20;99.90
20520;DHT22;53432;51.952;14.740;2022-08-19T08:00:47;24.20;99.90
20520;DHT22;53432;51.952;14.740;2022-08-19T08:03:16;24.10;99.90
20520;DHT22;53432;51.952;14.740;2022-08-19T08:05:46;24.00;99.90
20520;DHT22;53432;51.952;14.740;2022-08-19T08:08:31;24.10;99.90
20520;DHT22;53432;51.952;14.740;2022-08-19T08:11:18;24.30;99.90
20520;DHT22;53432;51.952;14.740;2022-08-19T08:13:46;24.40;99.90
20520;DHT22;53432;51.952;14.740;2022-08-19T08:16:14;24.40;99.90
20520;DHT22;53432;51.952;14.740;2022-08-19T08:18:41;24.20;99.90
20520;DHT22;53432;51.952;14.740;2022-08-19T08:21:13;24.10;99.90
20520;DHT22;53432;51.952;14.740;2022-08-19T08:23:40;24.20;99.90
20520;DHT22;53432;51.952;14.740;2022-08-19T08:26:08;24.20;99.90
20520;DHT22;53432;51.952;14.740;2022-08-19T08:28:36;24.20;99.90
20520;DHT22;53432;51.952;14.740;2022-08-19T08:31:04;24.20;99.90
20520;DHT22;53432;51.952;14.740;2022-08-19T08:33:32;24.20;99.90
20520;DHT22;53432;51.952;14.740;2022-08-19T08:35:59;24.00;99.90
20520;DHT22;53432;51.952;14.740;2022-08-19T08:38:28;24.00;99.90
20520;DHT22;53432;51.952;14.740;2022-08-19T08:41:00;24.00;99.90
20520;DHT22;53432;51.952;14.740;2022-08-19T08:43:35;24.00;99.90
20520;DHT22;53432;51.952;14.740;2022-08-19T08:46:05;24.00;99.90
20520;DHT22;53432;51.952;14.740;2022-08-19T08:48:38;24.00;99.90
20520;DHT22;53432;51.952;14.740;2022-08-19T08:51:10;24.00;99.90
20520;DHT22;53432;51.952;14.740;2022-08-19T08:53:40;23.90;99.90
20520;DHT22;53432;51.952;14.740;2022-08-19T08:56:09;23.90;99.90
20520;DHT22;53432;51.952;14.740;2022-08-19T08:58:47;24.00;99.90
20520;DHT22;53432;51.952;14.740;2022-08-19T09:01:16;24.00;99.90
20520;DHT22;53432;51.952;14.740;2022-08-19T09:03:44;24.00;99.90
20520;DHT22;53432;51.952;14.740;2022-08-19T09:06:14;24.00;99.90
20520;DHT22;53432;51.952;14.740;2022-08-19T09:08:56;24.00;99.90
20520;DHT22;53432;51.952;14.740;2022-08-19T09:11:48;24.00;99.90
20520;DHT22;53432;51.952;14.740;2022-08-19T09:14:32;24.00;99.90
20520;DHT22;53432;51.952;14.740;2022-08-19T09:17:01;24.00;99.90
20520;DHT22;53432;51.952;14.740;2022-08-19T09:19:30;23.90;99.90
20520;DHT22;53432;51.952;14.740;2022-08-19T09:21:57;23.90;99.90
20520;DHT22;53432;51.952;14.740;2022-08-19T09:24:27;23.90;99.90
20520;DHT22;53432;51.952;14.740;2022-08-19T09:26:55;23.90;99.90
20520;DHT22;53432;51.952;14.740;2022-08-19T09:29:22;23.90;99.90
20520;DHT22;53432;51.952;14.740;2022-08-19T09:31:50;23.90;99.90
20520;DHT22;53432;51.952;14.740;2022-08-19T09:34:18;23.80;99.90
20520;DHT22;53432;51.952;14.740;2022-08-19T09:36:46;23.70;99.90
20520;DHT22;53432;51.952;14.740;2022-08-19T09:39:15;23.70;99.90
20520;DHT22;53432;51.952;14.740;2022-08-19T09:41:44;23.70;99.90
20520;DHT22;53432;51.952;14.740;2022-08-19T09:44:11;23.60;99.90
20520;DHT22;53432;51.952;14.740;2022-08-19T09:46:39;23.60;99.90
20520;DHT22;53432;51.952;14.740;2022-08-19T09:49:06;23.50;99.90
20520;DHT22;53432;51.952;14.740;2022-08-19T09:51:34;23.60;99.90
20520;DHT22;53432;51.952;14.740;2022-08-19T09:54:03;23.50;99.90
20520;DHT22;53432;51.952;14.740;2022-08-19T09:56:31;23.60;99.90
20520;DHT22;53432;51.952;14.740;2022-08-19T09:59:02;23.60;99.90
20520;DHT22;53432;51.952;14.740;2022-08-19T10:01:31;23.60;99.90
20520;DHT22;53432;51.952;14.740;2022-08-19T10:04:01;23.50;99.90
20520;DHT22;53432;51.952;14.740;2022-08-19T10:06:30;23.60;99.90
20520;DHT22;53432;51.952;14.740;2022-08-19T10:08:59;23.60;99.90
20520;DHT22;53432;51.952;14.740;2022-08-19T10:11:27;23.60;99.90
20520;DHT22;53432;51.952;14.740;2022-08-19T10:13:55;23.60;99.90
20520;DHT22;53432;51.952;14.740;2022-08-19T10:16:24;23.70;99.90
20520;DHT22;53432;51.952;14.740;2022-08-19T10:18:53;23.60;99.90
20520;DHT22;53432;51.952;14.740;2022-08-19T10:21:24;23.60;99.90
20520;DHT22;53432;51.952;14.740;2022-08-19T10:23:54;23.60;99.90
20520;DHT22;53432;51.952;14.740;2022-08-19T10:26:26;23.70;99.90
20520;DHT22;53432;51.952;14.740;2022-08-19T10:28:53;23.70;99.90
20520;DHT22;53432;51.952;14.740;2022-08-19T10:31:24;23.70;99.90
20520;DHT22;53432;51.952;14.740;2022-08-19T10:33:52;23.70;99.90
20520;DHT22;53432;51.952;14.740;2022-08-19T10:36:25;23.70;99.90
20520;DHT22;53432;51.952;14.740;2022-08-19T10:38:55;23.80;99.90
20520;DHT22;53432;51.952;14.740;2022-08-19T10:41:26;23.90;99.90
20520;DHT22;53432;51.952;14.740;2022-08-19T10:43:55;23.90;99.90
20520;DHT22;53432;51.952;14.740;2022-08-19T10:46:26;23.90;99.90
20520;DHT22;53432;51.952;14.740;2022-08-19T10:48:54;23.90;99.90
20520;DHT22;53432;51.952;14.740;2022-08-19T10:51:22;24.00;99.90
20520;DHT22;53432;51.952;14.740;2022-08-19T10:54:07;24.00;99.90
20520;DHT22;53432;51.952;14.740;2022-08-19T10:56:35;24.10;99.90
20520;DHT22;53432;51.952;14.740;2022-08-19T10:59:21;24.10;99.90
20520;DHT22;53432;51.952;14.740;2022-08-19T11:01:51;24.10;99.90
20520;DHT22;53432;51.952;14.740;2022-08-19T11:04:19;24.10;99.90
20520;DHT22;53432;51.952;14.740;2022-08-19T11:06:48;24.10;99.90
20520;DHT22;53432;51.952;14.740;2022-08-19T11:09:18;24.10;99.90
20520;DHT22;53432;51.952;14.740;2022-08-19T11:11:45;24.00;99.90
20520;DHT22;53432;51.952;14.740;2022-08-19T11:14:15;24.00;99.90
20520;DHT22;53432;51.952;14.740;2022-08-19T11:16:44;23.90;99.90
20520;DHT22;53432;51.952;14.740;2022-08-19T11:19:13;24.00;99.90
20520;DHT22;53432;51.952;14.740;2022-08-19T11:21:44;24.00;99.90
20520;DHT22;53432;51.952;14.740;2022-08-19T11:24:14;23.90;99.90
20520;DHT22;53432;51.952;14.740;2022-08-19T11:26:43;23.90;99.90
20520;DHT22;53432;51.952;14.740;2022-08-19T11:29:12;23.90;99.90
20520;DHT22;53432;51.952;14.740;2022-08-19T11:31:42;23.80;99.90
20520;DHT22;53432;51.952;14.740;2022-08-19T11:34:14;23.80;99.90
20520;DHT22;53432;51.952;14.740;2022-08-19T11:36:44;23.90;99.90
20520;DHT22;53432;51.952;14.740;2022-08-19T11:39:14;23.90;99.90
20520;DHT22;53432;51.952;14.740;2022-08-19T11:41:42;23.90;99.90
20520;DHT22;53432;51.952;14.740;2022-08-19T11:44:10;23.90;99.90
20520;DHT22;53432;51.952;14.740;2022-08-19T11:46:41;23.80;99.90
20520;DHT22;53432;51.952;14.740;2022-08-19T11:49:12;23.80;99.90
20520;DHT22;53432;51.952;14.740;2022-08-19T11:51:41;23.80;99.90
20520;DHT22;53432;51.952;14.740;2022-08-19T11:54:09;23.80;99.90
20520;DHT22;53432;51.952;14.740;2022-08-19T11:56:37;23.80;99.90
20520;DHT22;53432;51.952;14.740;2022-08-19T11:59:05;23.80;99.90
20520;DHT22;53432;51.952;14.740;2022-08-19T12:01:34;23.90;99.90
20520;DHT22;53432;51.952;14.740;2022-08-19T12:04:01;23.90;99.90
20520;DHT22;53432;51.952;14.740;2022-08-19T12:06:31;23.90;99.90
20520;DHT22;53432;51.952;14.740;2022-08-19T12:09:04;24.00;99.90
20520;DHT22;53432;51.952;14.740;2022-08-19T12:11:33;24.00;99.90
20520;DHT22;53432;51.952;14.740;2022-08-19T12:14:00;24.00;99.90
20520;DHT22;53432;51.952;14.740;2022-08-19T12:16:29;24.00;99.90
20520;DHT22;53432;51.952;14.740;2022-08-19T12:18:57;24.00;99.90
20520;DHT22;53432;51.952;14.740;2022-08-19T12:21:32;24.00;99.90
20520;DHT22;53432;51.952;14.740;2022-08-19T12:24:02;24.00;99.90
20520;DHT22;53432;51.952;14.740;2022-08-19T12:26:30;24.00;99.90
20520;DHT22;53432;51.952;14.740;2022-08-19T12:28:59;24.00;99.90
20520;DHT22;53432;51.952;14.740;2022-08-19T12:31:27;24.10;99.90
20520;DHT22;53432;51.952;14.740;2022-08-19T12:33:55;24.10;99.90
20520;DHT22;53432;51.952;14.740;2022-08-19T12:36:22;24.10;99.90
20520;DHT22;53432;51.952;14.740;2022-08-19T12:38:51;24.10;99.90
20520;DHT22;53432;51.952;14.740;2022-08-19T12:41:20;24.10;99.90
20520;DHT22;53432;51.952;14.740;2022-08-19T12:43:48;24.20;99.90
20520;DHT22;53432;51.952;14.740;2022-08-19T12:46:17;24.20;99.90
20520;DHT22;53432;51.952;14.740;2022-08-19T12:48:44;24.20;99.90
20520;DHT22;53432;51.952;14.740;2022-08-19T12:51:13;24.20;99.90
20520;DHT22;53432;51.952;14.740;2022-08-19T12:53:41;24.10;99.90
20520;DHT22;53432;51.952;14.740;2022-08-19T12:56:10;24.10;99.90
20520;DHT22;53432;51.952;14.740;2022-08-19T12:58:39;24.10;99.90
20520;DHT22;53432;51.952;14.740;2022-08-19T13:01:09;24.10;99.90
20520;DHT22;53432;51.952;14.740;2022-08-19T13:03:37;24.00;99.90
20520;DHT22;53432;51.952;14.740;2022-08-19T13:06:04;24.00;99.90
20520;DHT22;53432;51.952;14.740;2022-08-19T13:08:32;24.10;99.90
20520;DHT22;53432;51.952;14.740;2022-08-19T13:11:07;24.10;99.90
20520;DHT22;53432;51.952;14.740;2022-08-19T13:13:37;24.20;99.90
20520;DHT22;53432;51.952;14.740;2022-08-19T13:16:08;24.20;99.90
20520;DHT22;53432;51.952;14.740;2022-08-19T13:18:35;24.30;99.90
20520;DHT22;53432;51.952;14.740;2022-08-19T13:21:03;24.20;99.90
20520;DHT22;53432;51.952;14.740;2022-08-19T13:23:32;24.20;99.90
20520;DHT22;53432;51.952;14.740;2022-08-19T13:26:03;24.30;99.90
20520;DHT22;53432;51.952;14.740;2022-08-19T13:28:31;24.40;99.90
20520;DHT22;53432;51.952;14.740;2022-08-19T13:31:30;24.50;99.90
20520;DHT22;53432;51.952;14.740;2022-08-19T13:34:15;24.60;99.90
20520;DHT22;53432;51.952;14.740;2022-08-19T13:36:43;24.90;99.90
20520;DHT22;53432;51.952;14.740;2022-08-19T13:39:11;25.00;99.90
20520;DHT22;53432;51.952;14.740;2022-08-19T13:41:43;25.20;99.90
20520;DHT22;53432;51.952;14.740;2022-08-19T13:44:14;25.30;99.90
20520;DHT22;53432;51.952;14.740;2022-08-19T13:46:45;25.30;99.90
20520;DHT22;53432;51.952;14.740;2022-08-19T13:49:14;25.40;99.90
20520;DHT22;53432;51.952;14.740;2022-08-19T13:51:42;25.40;99.90
20520;DHT22;53432;51.952;14.740;2022-08-19T13:54:11;25.50;99.90
20520;DHT22;53432;51.952;14.740;2022-08-19T13:56:40;25.60;99.90
20520;DHT22;53432;51.952;14.740;2022-08-19T13:59:08;25.60;99.90
20520;DHT22;53432;51.952;14.740;2022-08-19T14:01:36;25.60;99.90
20520;DHT22;53432;51.952;14.740;2022-08-19T14:04:05;25.60;99.90
20520;DHT22;53432;51.952;14.740;2022-08-19T14:06:33;25.60;99.90
20520;DHT22;53432;51.952;14.740;2022-08-19T14:09:00;25.60;99.90
20520;DHT22;53432;51.952;14.740;2022-08-19T14:11:29;25.60;99.90
20520;DHT22;53432;51.952;14.740;2022-08-19T14:13:56;25.60;99.90
20520;DHT22;53432;51.952;14.740;2022-08-19T14:16:24;25.50;99.90
20520;DHT22;53432;51.952;14.740;2022-08-19T14:18:53;25.50;99.90
20520;DHT22;53432;51.952;14.740;2022-08-19T14:21:23;25.50;99.90
20520;DHT22;53432;51.952;14.740;2022-08-19T14:23:52;25.40;99.90
20520;DHT22;53432;51.952;14.740;2022-08-19T14:26:20;25.40;99.90
20520;DHT22;53432;51.952;14.740;2022-08-19T14:28:48;25.40;99.90
20520;DHT22;53432;51.952;14.740;2022-08-19T14:31:17;25.30;99.90
20520;DHT22;53432;51.952;14.740;2022-08-19T14:33:46;25.30;99.90
20520;DHT22;53432;51.952;14.740;2022-08-19T14:36:13;25.20;99.90
20520;DHT22;53432;51.952;14.740;2022-08-19T14:38:42;25.20;99.90
20520;DHT22;53432;51.952;14.740;2022-08-19T14:41:14;25.10;99.90
20520;DHT22;53432;51.952;14.740;2022-08-19T14:43:43;25.20;99.90
20520;DHT22;53432;51.952;14.740;2022-08-19T14:46:37;25.10;99.90
20520;DHT22;53432;51.952;14.740;2022-08-19T14:49:05;25.00;99.90
20520;DHT22;53432;51.952;14.740;2022-08-19T14:51:32;25.00;99.90
20520;DHT22;53432;51.952;14.740;2022-08-19T14:54:01;25.00;99.90
20520;DHT22;53432;51.952;14.740;2022-08-19T14:56:32;25.00;99.90
20520;DHT22;53432;51.952;14.740;2022-08-19T14:58:59;25.00;99.90
20520;DHT22;53432;51.952;14.740;2022-08-19T15:01:27;25.00;99.90
20520;DHT22;53432;51.952;14.740;2022-08-19T15:03:55;25.00;99.90
20520;DHT22;53432;51.952;14.740;2022-08-19T15:06:22;25.00;99.90
20520;DHT22;53432;51.952;14.740;2022-08-19T15:08:50;25.00;99.90
20520;DHT22;53432;51.952;14.740;2022-08-19T15:11:23;25.00;99.90
20520;DHT22;53432;51.952;14.740;2022-08-19T15:13:54;25.00;99.90
20520;DHT22;53432;51.952;14.740;2022-08-19T15:16:22;25.00;99.90
20520;DHT22;53432;51.952;14.740;2022-08-19T15:18:52;24.90;99.90
20520;DHT22;53432;51.952;14.740;2022-08-19T15:21:21;24.90;99.90
20520;DHT22;53432;51.952;14.740;2022-08-19T15:23:50;24.90;99.90
20520;DHT22;53432;51.952;14.740;2022-08-19T15:26:19;24.90;99.90
20520;DHT22;53432;51.952;14.740;2022-08-19T15:28:48;24.80;99.90